KMHK

Manhattan Regional Airport

Airport
ICAO code
KMHK
Summary
ICAO Region
NAM
ICAO Territory
Location

Manhattan, Kansas,

Coordinates
39° 8' 30" N , 96° 40' 8" W
KCC
Airport CFIT
Altimeter Temperature Error Correction
Metar
Observation
KMHK 070852Z 02006KT 10SM CLR 10/00 A3040 RMK AO2 SLP288 T01000000 53008
Station
Manhattan, Manhattan Municipal Airport
Date/Time
2022-10-07 08:52:00
Wind direction
20°
Wind speed
06 kts
Lowest cloud amount
n/a
Temperature
10°C
Dew point
0°C
Humidity
49%
Weather condition
n/a

Description

Manhattan Regional Airport is a public use airport located 7 km southwest of the central business district of Manhattan, in Riley County, Kansas

Climatology

Humid “subtropical” climate (Köppen climate classification Cfa) - characterized by hot, humid summers and cool winters. Significant amounts of precipitation occur in all seasons with most falling during the summer. Winter snowfall is associated with large storms that the westerlies steer from west to east. Most summer rainfall occurs during thunderstorms.

Runways

Designator Length Width Surface Rops
13/31 1158 30 PEM Yes/Yes
3/21 2134 46 CON Yes/Yes

Airport map

Aerial View

SKYbrary Partners:

Safety knowledge contributed by: